createdAt,value
2019-04-22T00:00:34.570Z,20.33
2019-04-22T00:03:06.577Z,20.97
2019-04-22T00:05:56.179Z,18.93
2019-04-22T00:08:36.142Z,17.30
2019-04-22T00:11:14.511Z,17.53
2019-04-22T00:13:51.943Z,15.67
2019-04-22T00:16:14.322Z,20.67
2019-04-22T00:21:31.992Z,14.47
2019-04-22T00:24:04.625Z,14.30
2019-04-22T00:26:37.522Z,14.67
2019-04-22T00:29:24.142Z,12.90
2019-04-22T00:31:48.026Z,13.93
2019-04-22T00:34:25.420Z,15.13
2019-04-22T00:36:54.330Z,14.97
2019-04-22T00:39:37.207Z,14.70
2019-04-22T00:42:10.133Z,13.67
2019-04-22T00:44:47.094Z,15.37
2019-04-22T00:47:26.672Z,13.50
2019-04-22T00:52:24.908Z,10.97
2019-04-22T00:54:59.458Z,10.33
2019-04-22T00:57:32.451Z,12.17
2019-04-22T01:00:08.513Z,10.33
2019-04-22T01:02:44.904Z,11.97
2019-04-22T01:05:21.957Z,12.93
2019-04-22T01:07:50.036Z,10.70
2019-04-22T01:10:29.831Z,8.30
2019-04-22T01:12:58.379Z,12.50
2019-04-22T01:15:36.821Z,10.63
2019-04-22T01:18:02.172Z,9.03
2019-04-22T01:21:00.850Z,10.40
2019-04-22T01:23:10.965Z,9.27
2019-04-22T01:25:46.291Z,9.20
2019-04-22T01:28:14.189Z,11.27
2019-04-22T01:30:43.881Z,11.73
2019-04-22T01:33:16.061Z,13.93
2019-04-22T01:36:06.396Z,11.47
2019-04-22T01:38:36.729Z,13.87
2019-04-22T01:41:27.671Z,17.37
2019-04-22T01:44:00.811Z,13.80
2019-04-22T01:46:25.730Z,14.37
2019-04-22T01:49:02.679Z,12.47
2019-04-22T01:51:45.206Z,15.13
2019-04-22T01:54:14.409Z,14.47
2019-04-22T01:56:40.946Z,14.60
2019-04-22T01:59:12.869Z,15.37
2019-04-22T02:01:52.803Z,12.90
2019-04-22T02:04:34.505Z,12.93
2019-04-22T02:07:02.080Z,14.37
2019-04-22T02:09:38.340Z,13.93
2019-04-22T02:12:14.408Z,13.77
2019-04-22T02:14:48.474Z,12.37
2019-04-22T02:22:41.705Z,14.47
2019-04-22T02:25:08.808Z,13.53
2019-04-22T02:27:39.065Z,14.60
2019-04-22T02:30:05.469Z,13.67
2019-04-22T02:32:58.586Z,15.50
2019-04-22T02:38:14.029Z,13.83
2019-04-22T02:40:44.360Z,13.77
2019-04-22T02:43:11.839Z,12.43
2019-04-22T02:45:52.235Z,10.60
2019-04-22T02:48:25.554Z,12.43
2019-04-22T02:50:54.105Z,12.23
2019-04-22T02:53:58.545Z,12.03
2019-04-22T02:58:47.982Z,12.37
2019-04-22T03:01:14.293Z,11.83
2019-04-22T03:11:31.101Z,12.93
2019-04-22T03:14:01.260Z,11.07
2019-04-22T03:16:31.942Z,11.67
2019-04-22T03:21:38.534Z,11.67
2019-04-22T03:24:20.237Z,11.07
2019-04-22T03:26:48.499Z,11.07
2019-04-22T03:30:36.673Z,12.23
2019-04-22T03:35:30.411Z,13.53
2019-04-22T03:40:33.934Z,10.87
2019-04-22T03:48:05.361Z,8.93
2019-04-22T03:53:14.925Z,9.00
2019-04-22T03:55:51.356Z,8.50
2019-04-22T03:58:21.888Z,8.50
2019-04-22T04:03:30.460Z,8.70
2019-04-22T04:06:04.916Z,10.17
2019-04-22T04:11:10.455Z,7.87
2019-04-22T04:13:52.141Z,7.43
2019-04-22T04:16:29.967Z,8.93
2019-04-22T04:24:23.936Z,8.77
2019-04-22T04:31:58.841Z,9.43
2019-04-22T04:34:56.359Z,10.80
2019-04-22T04:39:36.440Z,8.77
2019-04-22T04:42:18.105Z,8.43
2019-04-22T04:54:59.367Z,7.07
2019-04-22T04:57:41.015Z,7.23
2019-04-22T05:00:31.969Z,7.33
2019-04-22T05:02:52.437Z,6.63
2019-04-22T05:15:27.651Z,7.67
2019-04-22T05:18:07.255Z,8.23
2019-04-22T05:20:42.669Z,7.23
2019-04-22T05:23:08.749Z,6.87
2019-04-22T05:25:32.034Z,9.20
2019-04-22T05:28:10.388Z,9.30
2019-04-22T05:30:47.104Z,8.10
2019-04-22T05:33:21.497Z,8.10
2019-04-22T05:35:54.793Z,7.33
2019-04-22T05:38:38.406Z,7.63
2019-04-22T05:41:14.829Z,6.97
2019-04-22T05:43:42.710Z,10.00
2019-04-22T05:46:15.717Z,8.00
2019-04-22T05:48:54.218Z,6.67
2019-04-22T05:51:27.517Z,14.23
2019-04-22T05:54:01.555Z,14.03
2019-04-22T05:56:37.296Z,16.17
2019-04-22T05:59:03.835Z,14.27
2019-04-22T06:04:16.799Z,9.60
2019-04-22T06:06:46.756Z,10.50
2019-04-22T06:09:24.928Z,8.13
2019-04-22T06:11:54.294Z,12.77
2019-04-22T06:14:26.478Z,9.07
2019-04-22T06:17:04.056Z,14.53
2019-04-22T06:19:38.011Z,11.53
2019-04-22T06:22:22.783Z,11.40
2019-04-22T06:24:49.333Z,8.40
2019-04-22T06:30:01.848Z,12.20
2019-04-22T06:35:16.689Z,7.23
2019-04-22T06:37:53.217Z,8.07
2019-04-22T06:40:16.475Z,10.00
2019-04-22T06:42:58.026Z,7.77
2019-04-22T06:45:32.373Z,10.53
2019-04-22T06:50:39.661Z,7.67
2019-04-22T06:53:09.053Z,6.70
2019-04-22T06:58:15.369Z,6.37
2019-04-22T07:00:44.653Z,6.70
2019-04-22T07:05:57.001Z,5.73
2019-04-22T07:11:01.416Z,6.87
2019-04-22T07:13:43.467Z,6.70
2019-04-22T07:16:22.725Z,6.53
2019-04-22T07:18:48.212Z,4.77
2019-04-22T07:21:25.968Z,7.67
2019-04-22T07:24:17.479Z,5.07
2019-04-22T07:26:31.866Z,5.10
2019-04-22T07:29:20.637Z,6.13
2019-04-22T07:31:45.056Z,5.27
2019-04-22T07:34:19.747Z,4.90
2019-04-22T07:36:53.612Z,6.37
2019-04-22T07:39:25.577Z,5.30
2019-04-22T07:41:56.038Z,4.83
2019-04-22T07:44:31.039Z,6.17
2019-04-22T07:47:13.846Z,6.07
2019-04-22T07:52:16.039Z,5.80
2019-04-22T07:54:43.150Z,4.87
2019-04-22T07:57:27.975Z,4.43
2019-04-22T08:00:03.005Z,5.00
2019-04-22T08:10:23.883Z,4.63
2019-04-22T08:15:20.809Z,4.10
2019-04-22T08:18:15.146Z,4.40
2019-04-22T08:20:37.244Z,7.23
2019-04-22T08:23:14.186Z,5.17
2019-04-22T08:28:17.489Z,5.10
2019-04-22T08:33:29.539Z,4.60
2019-04-22T08:36:11.510Z,4.83
2019-04-22T08:38:37.668Z,7.77
2019-04-22T08:41:16.380Z,6.07
2019-04-22T08:44:01.203Z,4.75
2019-04-22T08:46:42.016Z,5.30
2019-04-22T08:49:02.242Z,4.50
2019-04-22T08:51:50.745Z,6.63
2019-04-22T08:54:11.908Z,5.97
2019-04-22T08:59:28.392Z,5.20
2019-04-22T09:01:52.020Z,5.60
2019-04-22T09:04:27.841Z,5.07
2019-04-22T09:07:18.304Z,6.07
2019-04-22T09:09:37.897Z,4.27
2019-04-22T09:12:14.737Z,3.97
2019-04-22T09:17:22.793Z,3.63
2019-04-22T09:19:54.560Z,4.97
2019-04-22T09:22:21.470Z,3.70
2019-04-22T09:24:56.063Z,4.70
2019-04-22T09:27:38.534Z,6.13
2019-04-22T09:30:13.176Z,4.93
2019-04-22T09:32:47.784Z,3.30
2019-04-22T09:35:16.005Z,4.97
2019-04-22T09:37:58.896Z,5.77
2019-04-22T09:40:40.443Z,7.23
2019-04-22T09:43:17.029Z,5.30
2019-04-22T09:45:41.748Z,6.23
2019-04-22T09:48:18.087Z,3.40
2019-04-22T09:50:48.192Z,7.63
2019-04-22T09:53:17.665Z,15.50
2019-04-22T09:55:49.992Z,3.57
2019-04-22T09:58:23.571Z,3.90
2019-04-22T10:01:18.809Z,4.67
2019-04-22T10:03:45.269Z,3.30
2019-04-22T10:06:30.808Z,4.80
2019-04-22T10:10:01.482Z,4.23
2019-04-22T10:14:01.636Z,6.53
2019-04-22T10:19:12.044Z,5.97
2019-04-22T10:21:54.492Z,6.77
2019-04-22T10:24:13.536Z,6.63
2019-04-22T10:26:50.573Z,7.47
2019-04-22T10:29:28.346Z,6.10
2019-04-22T10:34:16.839Z,8.37
2019-04-22T10:36:44.033Z,5.13
2019-04-22T10:39:16.243Z,6.97
2019-04-22T10:41:50.491Z,6.90
2019-04-22T10:44:23.648Z,6.27
2019-04-22T10:46:56.139Z,8.53
2019-04-22T10:49:31.810Z,5.73
2019-04-22T10:52:04.616Z,5.57
2019-04-22T10:54:37.672Z,7.37
2019-04-22T10:57:10.862Z,5.60
2019-04-22T10:59:43.141Z,4.63
2019-04-22T11:02:15.461Z,5.13
2019-04-22T11:04:48.164Z,7.07
2019-04-22T11:07:32.539Z,4.70
2019-04-22T11:10:15.368Z,5.83
2019-04-22T11:12:35.518Z,8.13
2019-04-22T11:15:07.992Z,5.07
2019-04-22T11:17:41.698Z,5.20
2019-04-22T11:20:15.487Z,4.33
2019-04-22T11:22:48.916Z,6.53
2019-04-22T11:25:21.696Z,9.77
2019-04-22T11:27:55.783Z,8.37
2019-04-22T11:30:30.263Z,3.47
2019-04-22T11:33:02.792Z,5.50
2019-04-22T11:35:35.061Z,4.07
2019-04-22T11:38:08.689Z,9.00
2019-04-22T11:40:47.498Z,3.27
2019-04-22T11:43:16.399Z,4.30
2019-04-22T11:45:49.244Z,5.20
2019-04-22T11:48:21.731Z,6.83
2019-04-22T11:50:57.924Z,4.77
2019-04-22T11:53:31.019Z,3.63
2019-04-22T11:56:04.716Z,4.33
2019-04-22T11:58:37.338Z,7.90
2019-04-22T12:01:10.835Z,4.83
2019-04-22T12:03:44.204Z,4.07
2019-04-22T12:06:17.818Z,4.00
2019-04-22T12:08:51.685Z,6.17
2019-04-22T12:11:38.470Z,4.67
2019-04-22T12:14:11.788Z,4.30
2019-04-22T12:16:45.528Z,5.50
2019-04-22T12:19:19.021Z,3.13
2019-04-22T12:21:53.077Z,5.70
2019-04-22T12:24:25.719Z,3.30
2019-04-22T12:26:58.106Z,6.30
2019-04-22T12:29:31.021Z,4.20
2019-04-22T12:32:03.473Z,5.07
2019-04-22T12:34:35.799Z,6.97
2019-04-22T12:37:08.755Z,4.40
2019-04-22T12:39:41.371Z,5.87
2019-04-22T12:42:17.432Z,5.07
2019-04-22T12:44:51.169Z,4.77
2019-04-22T12:47:24.314Z,4.20
2019-04-22T12:50:10.347Z,8.23
2019-04-22T12:52:39.711Z,5.67
2019-04-22T12:55:05.939Z,5.70
2019-04-22T12:57:38.884Z,10.30
2019-04-22T13:00:13.580Z,6.77
2019-04-22T13:02:47.268Z,6.13
2019-04-22T13:05:20.899Z,6.90
2019-04-22T13:07:53.721Z,5.73
2019-04-22T13:10:40.072Z,7.83
2019-04-22T13:13:00.850Z,5.90
2019-04-22T13:15:34.969Z,10.10
2019-04-22T13:18:17.530Z,5.43
2019-04-22T13:20:42.144Z,7.27
2019-04-22T13:23:15.720Z,6.77
2019-04-22T13:25:49.097Z,7.97
2019-04-22T13:28:22.910Z,10.83
2019-04-22T13:30:56.897Z,11.00
2019-04-22T13:33:30.528Z,16.30
2019-04-22T13:36:03.749Z,7.43
2019-04-22T13:38:38.388Z,9.10
2019-04-22T13:41:21.451Z,12.17
2019-04-22T13:43:44.994Z,7.63
2019-04-22T13:46:17.371Z,9.93
2019-04-22T13:49:20.773Z,7.37
2019-04-22T13:51:57.230Z,8.93
2019-04-22T13:56:52.201Z,8.00
2019-04-22T13:59:17.651Z,7.97
2019-04-22T14:02:01.311Z,6.60
2019-04-22T14:04:36.723Z,8.33
2019-04-22T14:07:10.493Z,8.17
2019-04-22T14:09:44.403Z,8.33
2019-04-22T14:12:18.387Z,10.00
2019-04-22T14:14:52.610Z,8.10
2019-04-22T14:17:25.354Z,8.13
2019-04-22T14:19:57.511Z,10.47
2019-04-22T14:22:30.534Z,13.67
2019-04-22T14:25:04.902Z,8.23
2019-04-22T14:27:47.907Z,8.87
2019-04-22T14:30:12.550Z,10.97
2019-04-22T14:32:45.787Z,9.07
2019-04-22T14:35:18.959Z,9.43
2019-04-22T14:37:52.262Z,10.03
2019-04-22T14:40:26.634Z,11.07
2019-04-22T14:43:20.304Z,8.97
2019-04-22T14:46:07.084Z,10.97
2019-04-22T14:48:36.245Z,8.37
2019-04-22T14:51:05.270Z,13.13
2019-04-22T14:53:35.251Z,9.90
2019-04-22T14:55:54.640Z,9.83
2019-04-22T14:58:28.559Z,9.60
2019-04-22T15:01:01.238Z,9.53
2019-04-22T15:03:38.437Z,11.27
2019-04-22T15:06:10.535Z,9.67
2019-04-22T15:08:44.965Z,12.33
2019-04-22T15:11:17.267Z,10.80
2019-04-22T15:13:53.550Z,11.03
2019-04-22T15:16:33.994Z,12.70
2019-04-22T15:19:15.817Z,9.63
2019-04-22T15:21:48.241Z,9.50
2019-04-22T15:24:30.421Z,9.77
2019-04-22T15:26:58.920Z,10.27
2019-04-22T15:29:33.616Z,11.73
2019-04-22T15:32:07.340Z,12.33
2019-04-22T15:34:41.476Z,12.77
2019-04-22T15:37:14.071Z,11.33
2019-04-22T15:39:47.780Z,10.67
2019-04-22T15:42:30.754Z,10.80
2019-04-22T15:45:02.588Z,12.37
2019-04-22T15:47:37.733Z,9.10
2019-04-22T15:50:14.311Z,11.40
2019-04-22T15:52:51.321Z,14.43
2019-04-22T15:55:20.800Z,10.00
2019-04-22T15:58:01.643Z,9.33
2019-04-22T16:00:44.423Z,9.13
2019-04-22T16:03:12.172Z,11.40
2019-04-22T16:05:44.017Z,10.57
2019-04-22T16:08:17.160Z,11.80
2019-04-22T16:10:49.853Z,10.53
2019-04-22T16:13:26.452Z,11.60
2019-04-22T16:15:56.821Z,13.40
2019-04-22T16:18:30.515Z,16.33
2019-04-22T16:21:03.171Z,14.03
2019-04-22T16:23:40.322Z,12.73
2019-04-22T16:26:24.262Z,13.23
2019-04-22T16:28:58.095Z,10.70
2019-04-22T16:31:31.321Z,14.07
2019-04-22T16:34:07.472Z,11.90
2019-04-22T16:36:40.851Z,15.33
2019-04-22T16:39:13.345Z,10.80
2019-04-22T16:41:48.637Z,15.53
2019-04-22T16:44:21.012Z,13.33
2019-04-22T16:46:53.391Z,15.37
2019-04-22T16:49:27.618Z,14.07
2019-04-22T16:52:00.323Z,12.77
2019-04-22T16:54:34.852Z,12.70
2019-04-22T16:57:08.162Z,16.00
2019-04-22T16:59:48.749Z,12.67
2019-04-22T17:05:33.752Z,14.93
2019-04-22T17:08:06.354Z,16.87
2019-04-22T17:10:39.723Z,14.30
2019-04-22T17:13:19.192Z,13.93
2019-04-22T17:15:47.252Z,11.97
2019-04-22T17:18:21.254Z,13.77
2019-04-22T17:20:55.016Z,13.83
2019-04-22T17:23:27.685Z,13.60
2019-04-22T17:26:00.780Z,14.50
2019-04-22T17:28:33.443Z,17.93
2019-04-22T17:31:06.626Z,17.03
2019-04-22T17:33:39.474Z,14.13
2019-04-22T17:36:12.049Z,17.90
2019-04-22T17:38:54.242Z,17.63
2019-04-22T17:41:28.332Z,16.03
2019-04-22T17:44:18.630Z,13.57
2019-04-22T17:46:40.241Z,14.30
2019-04-22T17:49:31.538Z,15.27
2019-04-22T17:52:30.584Z,15.07
2019-04-22T17:54:50.575Z,14.07
2019-04-22T17:57:24.084Z,14.23
2019-04-22T17:59:55.264Z,16.10
2019-04-22T18:02:29.586Z,13.33
2019-04-22T18:04:55.050Z,16.60
2019-04-22T18:07:42.737Z,14.27
2019-04-22T18:13:14.050Z,13.27
2019-04-22T18:15:26.934Z,14.83
2019-04-22T18:18:06.499Z,17.00
2019-04-22T18:20:29.291Z,20.90
2019-04-22T18:22:58.047Z,19.10
2019-04-22T18:25:45.028Z,13.83
2019-04-22T18:28:25.634Z,13.40
2019-04-22T18:30:48.348Z,13.90
2019-04-22T18:33:31.870Z,14.13
2019-04-22T18:36:02.679Z,16.30
2019-04-22T18:38:47.542Z,15.00
2019-04-22T18:41:04.933Z,14.83
2019-04-22T18:43:48.589Z,16.27
2019-04-22T18:46:25.384Z,17.23
2019-04-22T18:48:54.249Z,14.53
2019-04-22T18:51:33.858Z,18.40
2019-04-22T18:54:14.740Z,13.30
2019-04-22T18:56:46.532Z,15.13
2019-04-22T18:59:13.747Z,15.40
2019-04-22T19:01:41.939Z,14.00
2019-04-22T19:04:26.535Z,14.33
2019-04-22T19:07:17.204Z,17.30
2019-04-22T19:09:59.791Z,15.90
2019-04-22T19:15:05.472Z,18.40
2019-04-22T19:17:47.713Z,15.30
2019-04-22T19:20:15.628Z,21.00
2019-04-22T19:22:45.508Z,18.87
2019-04-22T19:25:13.622Z,23.20
2019-04-22T19:27:46.488Z,16.03
2019-04-22T19:30:33.468Z,20.27
2019-04-22T19:33:06.138Z,16.40
2019-04-22T19:35:35.019Z,16.17
2019-04-22T19:38:04.883Z,14.17
2019-04-22T19:41:03.138Z,19.33
2019-04-22T19:43:30.920Z,11.30
2019-04-22T19:45:58.872Z,14.77
2019-04-22T19:48:38.996Z,14.80
2019-04-22T19:51:12.833Z,17.90
2019-04-22T19:53:42.259Z,19.13
2019-04-22T19:56:11.321Z,17.20
2019-04-22T19:58:42.599Z,19.03
2019-04-22T20:01:27.272Z,22.90
2019-04-22T20:04:16.470Z,27.33
2019-04-22T20:06:49.117Z,20.63
2019-04-22T20:09:26.871Z,19.07
2019-04-22T20:11:59.765Z,17.50
2019-04-22T20:14:34.906Z,15.17
2019-04-22T20:17:02.490Z,15.27
2019-04-22T20:22:12.873Z,17.17
2019-04-22T20:24:43.488Z,14.00
2019-04-22T20:27:30.332Z,15.13
2019-04-22T20:30:04.632Z,16.67
2019-04-22T20:32:32.374Z,15.53
2019-04-22T20:35:15.764Z,13.83
2019-04-22T20:37:49.451Z,15.33
2019-04-22T20:40:20.079Z,10.90
2019-04-22T20:43:07.582Z,11.87
2019-04-22T20:45:30.623Z,15.10
2019-04-22T20:47:53.527Z,12.37
2019-04-22T20:50:35.886Z,13.33
2019-04-22T20:53:18.366Z,11.17
2019-04-22T20:55:42.199Z,14.60
2019-04-22T20:58:24.090Z,16.10
2019-04-22T21:00:46.313Z,13.27
2019-04-22T21:03:20.875Z,13.00
2019-04-22T21:05:53.042Z,13.13
2019-04-22T21:08:42.202Z,11.10
2019-04-22T21:11:15.275Z,13.13
2019-04-22T21:13:50.479Z,11.87
2019-04-22T21:16:26.793Z,13.97
2019-04-22T21:18:58.166Z,10.97
2019-04-22T21:21:43.535Z,16.57
2019-04-22T21:23:59.385Z,13.80
2019-04-22T21:26:39.941Z,15.93
2019-04-22T21:29:12.691Z,13.37
2019-04-22T21:31:52.613Z,14.20
2019-04-22T21:34:26.279Z,15.97
2019-04-22T21:37:03.913Z,12.97
2019-04-22T21:39:30.778Z,14.43
2019-04-22T21:42:06.336Z,16.10
2019-04-22T21:44:43.216Z,16.43
2019-04-22T21:47:20.595Z,14.93
2019-04-22T21:50:04.431Z,12.77
2019-04-22T21:52:24.397Z,13.37
2019-04-22T21:55:07.512Z,15.20
2019-04-22T21:57:52.685Z,16.27
2019-04-22T22:00:31.340Z,15.73
2019-04-22T22:03:02.212Z,16.97
2019-04-22T22:05:28.931Z,21.90
2019-04-22T22:07:56.170Z,17.97
2019-04-22T22:10:42.072Z,16.00
2019-04-22T22:13:10.928Z,16.40
2019-04-22T22:15:56.405Z,13.20
2019-04-22T22:18:24.115Z,12.67
2019-04-22T22:21:25.642Z,16.57
2019-04-22T22:23:43.708Z,14.30
2019-04-22T22:26:09.813Z,14.60
2019-04-22T22:28:57.209Z,13.87
2019-04-22T22:31:28.633Z,15.87
2019-04-22T22:34:02.823Z,15.67
2019-04-22T22:36:23.782Z,14.97
2019-04-22T22:39:00.374Z,17.07
2019-04-22T22:41:19.761Z,13.97
2019-04-22T22:43:57.020Z,17.37
2019-04-22T22:46:39.040Z,17.62
2019-04-22T22:49:23.645Z,16.67
2019-04-22T22:52:13.197Z,14.47
2019-04-22T22:54:37.597Z,17.33
2019-04-22T22:57:17.138Z,15.00
2019-04-22T22:59:38.645Z,14.23
2019-04-22T23:02:15.661Z,14.80
2019-04-22T23:04:54.584Z,17.10
2019-04-22T23:07:28.866Z,13.43
2019-04-22T23:10:05.049Z,16.00
2019-04-22T23:12:40.556Z,16.43
2019-04-22T23:15:06.255Z,13.83
2019-04-22T23:17:25.555Z,17.10
2019-04-22T23:19:56.599Z,15.90
2019-04-22T23:22:49.878Z,11.50
2019-04-22T23:25:33.205Z,13.93
2019-04-22T23:28:12.572Z,12.20
2019-04-22T23:30:57.986Z,12.23
2019-04-22T23:33:42.721Z,13.73
2019-04-22T23:36:25.113Z,13.43
2019-04-22T23:39:14.118Z,13.23
2019-04-22T23:41:50.719Z,13.10
2019-04-22T23:44:20.058Z,17.43
2019-04-22T23:46:52.120Z,10.40
2019-04-22T23:49:25.043Z,11.50
2019-04-22T23:52:16.306Z,11.33
2019-04-22T23:54:56.470Z,11.47
2019-04-22T23:57:33.090Z,15.03
